Time;durP1;ratioP1;P1;durP2;ratioP2;P2;SDS_P1;SDS_P2;PMS_P1;PMS_P2;Temp;Humidity;BMP_temperature;BMP_pressure;BME280_temperature;BME280_humidity;BME280_pressure;Samples;Min_cycle;Max_cycle;Signal;HPM_P1;HPM_P2
2021/12/16 00:07:10;;;;;;;14.30;13.80;;;20.10;90.90;;;;;;4998252;28;20446;-55
2021/12/16 00:09:47;;;;;;;14.03;13.53;;;20.10;91.00;;;;;;5055088;28;20820;-52
2021/12/16 00:31:53;;;;;;;13.93;13.33;;;19.80;93.00;;;;;;5018193;28;20567;-52
2021/12/16 00:34:30;;;;;;;14.53;14.03;;;19.80;93.30;;;;;;5054401;28;20456;-55
2021/12/16 00:36:59;;;;;;;14.40;13.80;;;19.80;93.70;;;;;;5054471;28;20463;-51
2021/12/16 00:39:36;;;;;;;13.50;13.10;;;19.80;93.90;;;;;;5054416;28;20460;-53
2021/12/16 00:42:09;;;;;;;14.07;13.53;;;19.80;94.20;;;;;;5054315;28;20440;-54
2021/12/16 00:45:03;;;;;;;14.53;14.03;;;19.80;94.30;;;;;;5034374;28;20456;-55
2021/12/16 00:47:35;;;;;;;14.23;13.63;;;19.70;94.60;;;;;;5034113;28;21065;-55
2021/12/16 00:50:20;;;;;;;14.50;13.97;;;19.70;94.90;;;;;;5034301;28;20449;-53
2021/12/16 00:55:43;;;;;;;14.40;13.80;;;19.70;95.50;;;;;;5054203;28;20506;-51
2021/12/16 00:58:09;;;;;;;15.20;14.60;;;19.70;95.70;;;;;;5054000;28;20459;-49
2021/12/16 01:00:36;;;;;;;15.37;14.87;;;19.70;95.90;;;;;;5053854;28;20447;-56
2021/12/16 01:03:16;;;;;;;15.20;14.60;;;19.60;96.00;;;;;;5053987;28;20937;-56
2021/12/16 01:06:00;;;;;;;14.00;13.50;;;19.60;96.20;;;;;;5053839;28;20463;-51
2021/12/16 01:08:47;;;;;;;14.37;13.83;;;19.60;96.30;;;;;;5053887;28;20464;-56
2021/12/16 01:33:51;;;;;;;14.20;13.70;;;19.50;97.70;;;;;;5053613;28;20921;-52
2021/12/16 01:36:35;;;;;;;13.57;13.13;;;19.50;97.90;;;;;;5053511;28;20509;-51
2021/12/16 01:47:47;;;;;;;13.73;13.33;;;19.50;98.00;;;;;;5053162;28;21119;-56
2021/12/16 01:50:20;;;;;;;14.97;14.27;;;19.50;98.00;;;;;;5053135;28;20455;-52
2021/12/16 01:53:08;;;;;;;14.23;13.73;;;19.50;98.10;;;;;;5053162;28;20863;-57
2021/12/16 01:55:44;;;;;;;13.90;13.50;;;19.40;98.20;;;;;;5053280;28;20443;-58
2021/12/16 01:58:16;;;;;;;14.17;13.67;;;19.40;98.30;;;;;;5053293;28;21026;-55
2021/12/16 02:00:58;;;;;;;14.37;13.87;;;19.40;98.30;;;;;;5052773;28;20448;-56
2021/12/16 02:03:39;;;;;;;13.50;13.10;;;19.40;98.40;;;;;;5052982;28;20452;-54
2021/12/16 02:06:15;;;;;;;13.20;12.80;;;19.40;98.40;;;;;;5052828;28;21051;-55
2021/12/16 02:08:42;;;;;;;15.23;14.53;;;19.40;98.50;;;;;;5052918;28;20525;-55
2021/12/16 02:11:27;;;;;;;14.27;13.77;;;19.30;98.70;;;;;;5052474;28;20475;-53
2021/12/16 02:28:13;;;;;;;13.30;12.83;;;19.30;99.20;;;;;;5032495;28;20965;-57
2021/12/16 02:36:37;;;;;;;14.00;13.50;;;19.30;99.60;;;;;;5052630;28;20431;-56
2021/12/16 02:39:10;;;;;;;15.10;14.50;;;19.20;99.70;;;;;;5052183;28;20444;-57
2021/12/16 02:41:40;;;;;;;14.50;13.90;;;19.20;99.80;;;;;;5052100;28;20778;-57
2021/12/16 02:44:25;;;;;;;13.60;13.20;;;19.30;99.80;;;;;;5052078;28;20510;-51
2021/12/16 02:49:43;;;;;;;14.37;13.87;;;19.20;99.90;;;;;;5052133;28;20515;-55
2021/12/16 02:52:10;;;;;;;13.70;13.20;;;19.20;99.90;;;;;;5051871;28;20891;-57
2021/12/16 02:54:38;;;;;;;14.53;14.03;;;19.20;99.90;;;;;;5051954;28;20957;-50
2021/12/16 02:57:06;;;;;;;14.17;13.67;;;19.30;99.90;;;;;;5051748;28;20464;-55
2021/12/16 02:59:33;;;;;;;14.33;13.80;;;19.30;99.90;;;;;;5051693;28;20445;-56
2021/12/16 03:02:06;;;;;;;13.83;13.33;;;19.30;99.90;;;;;;5051633;28;20956;-55
2021/12/16 03:04:34;;;;;;;14.20;13.70;;;19.30;99.90;;;;;;5051910;28;20440;-57
2021/12/16 03:07:03;;;;;;;14.00;13.50;;;19.30;99.90;;;;;;5051728;28;20479;-54
2021/12/16 03:12:39;;;;;;;13.97;13.47;;;19.30;99.90;;;;;;5028467;28;20482;-54
2021/12/16 03:15:15;;;;;;;14.03;13.53;;;19.30;99.90;;;;;;5051732;28;20791;-55
2021/12/16 03:17:50;;;;;;;13.50;13.00;;;19.20;99.90;;;;;;5051613;28;20478;-52
2021/12/16 03:20:26;;;;;;;13.27;12.87;;;19.20;99.90;;;;;;5051775;28;20513;-58
2021/12/16 03:23:13;;;;;;;13.77;13.27;;;19.20;99.90;;;;;;5051665;28;20810;-56
2021/12/16 03:25:52;;;;;;;15.07;14.47;;;19.20;99.90;;;;;;5051682;28;20444;-58
2021/12/16 03:31:34;;;;;;;15.03;14.47;;;19.10;99.90;;;;;;5028927;28;20572;-56
2021/12/16 03:37:13;;;;;;;14.33;13.83;;;19.10;99.90;;;;;;5032222;28;20459;-51
2021/12/16 03:39:42;;;;;;;14.10;13.50;;;19.10;99.90;;;;;;5058124;28;20446;-54
2021/12/16 03:42:09;;;;;;;14.63;14.13;;;19.00;99.90;;;;;;5057833;28;20436;-57
2021/12/16 03:44:51;;;;;;;15.10;14.50;;;19.10;99.90;;;;;;5058191;28;20451;-49
2021/12/16 03:47:20;;;;;;;14.90;14.30;;;19.10;99.90;;;;;;5057847;28;20859;-52
2021/12/16 03:49:47;;;;;;;14.80;14.20;;;19.10;99.90;;;;;;5057876;28;20973;-53
2021/12/16 03:52:14;;;;;;;15.00;14.40;;;19.20;99.90;;;;;;5057814;28;20486;-55
2021/12/16 03:54:49;;;;;;;14.10;13.60;;;19.20;99.90;;;;;;5058075;28;20447;-54
2021/12/16 03:57:17;;;;;;;14.50;14.00;;;19.20;99.90;;;;;;5057881;28;20467;-56
2021/12/16 03:59:46;;;;;;;14.73;13.83;;;19.30;99.90;;;;;;5058038;28;20466;-54
2021/12/16 04:02:16;;;;;;;14.60;14.10;;;19.30;99.90;;;;;;5057792;28;20824;-56
2021/12/16 04:04:44;;;;;;;14.90;14.30;;;19.40;99.90;;;;;;5057946;28;21027;-54
2021/12/16 04:07:11;;;;;;;14.40;13.90;;;19.40;99.90;;;;;;5057639;28;20682;-55
2021/12/16 04:09:38;;;;;;;14.70;14.20;;;19.40;99.90;;;;;;5057706;28;20444;-53
2021/12/16 04:12:11;;;;;;;15.70;15.00;;;19.40;99.90;;;;;;5057647;28;20507;-57
2021/12/16 04:14:39;;;;;;;15.87;15.27;;;19.30;99.90;;;;;;5057848;28;20506;-57
2021/12/16 04:17:09;;;;;;;15.07;14.47;;;19.30;99.90;;;;;;5057727;28;20475;-56
2021/12/16 04:19:37;;;;;;;14.97;14.40;;;19.30;99.90;;;;;;5057763;28;20809;-54
2021/12/16 04:22:09;;;;;;;14.87;14.17;;;19.30;99.90;;;;;;5057593;28;20848;-58
2021/12/16 04:24:37;;;;;;;15.07;14.47;;;19.30;99.90;;;;;;5057743;28;20444;-50
2021/12/16 04:27:06;;;;;;;15.07;14.37;;;19.40;99.90;;;;;;5057426;28;20825;-54
2021/12/16 04:29:33;;;;;;;14.80;14.30;;;19.40;99.90;;;;;;5057562;28;20451;-56
2021/12/16 04:32:01;;;;;;;14.60;14.10;;;19.50;99.90;;;;;;5057644;28;20483;-53
2021/12/16 04:34:29;;;;;;;13.57;13.07;;;19.50;99.90;;;;;;5057564;28;20447;-58
2021/12/16 04:36:56;;;;;;;14.27;13.77;;;19.40;99.90;;;;;;5057389;28;20468;-51
2021/12/16 04:39:25;;;;;;;16.30;15.70;;;19.40;99.90;;;;;;5057492;28;20443;-52
2021/12/16 04:41:54;;;;;;;14.20;13.70;;;19.50;99.90;;;;;;5057501;28;20439;-54
2021/12/16 04:44:23;;;;;;;14.30;13.73;;;19.50;99.90;;;;;;5057757;28;20852;-52
2021/12/16 04:46:50;;;;;;;14.33;13.73;;;19.40;99.90;;;;;;5057311;28;20471;-57
2021/12/16 04:49:18;;;;;;;14.77;14.27;;;19.40;99.90;;;;;;5054103;28;20808;-54
2021/12/16 04:51:48;;;;;;;14.30;13.73;;;19.40;99.90;;;;;;5054548;28;20471;-57
2021/12/16 04:54:17;;;;;;;14.40;13.90;;;19.30;99.90;;;;;;5054266;28;20448;-57
2021/12/16 04:56:45;;;;;;;14.90;14.27;;;19.40;99.90;;;;;;5054118;28;20485;-55
2021/12/16 04:59:15;;;;;;;15.07;14.57;;;19.30;99.90;;;;;;5054140;28;20452;-56
2021/12/16 05:01:45;;;;;;;14.73;14.17;;;19.40;99.90;;;;;;5054200;28;20447;-55
2021/12/16 05:04:13;;;;;;;15.40;14.90;;;19.50;99.90;;;;;;5053971;28;20952;-56
2021/12/16 05:06:40;;;;;;;14.80;14.20;;;19.50;99.90;;;;;;5053941;28;20444;-54
2021/12/16 05:09:11;;;;;;;15.00;14.50;;;19.50;99.90;;;;;;5053826;28;20452;-57
2021/12/16 05:11:38;;;;;;;15.30;14.80;;;19.50;99.90;;;;;;5053903;28;20567;-53
2021/12/16 05:14:07;;;;;;;15.87;15.27;;;19.60;99.90;;;;;;5053904;28;20444;-56
2021/12/16 05:16:34;;;;;;;15.30;14.70;;;19.60;99.80;;;;;;5053545;28;20452;-57
2021/12/16 05:19:01;;;;;;;15.03;14.47;;;19.60;99.80;;;;;;5053826;28;20948;-55
2021/12/16 05:21:44;;;;;;;15.60;15.07;;;19.50;99.70;;;;;;5053546;28;20926;-56
2021/12/16 05:24:25;;;;;;;14.63;14.13;;;19.60;99.80;;;;;;5053646;28;20479;-55
2021/12/16 05:26:55;;;;;;;16.20;15.63;;;19.50;99.70;;;;;;5033842;28;20480;-50
2021/12/16 05:29:22;;;;;;;15.90;15.30;;;19.50;99.70;;;;;;5033636;28;20449;-57
2021/12/16 05:31:49;;;;;;;16.07;15.47;;;19.50;99.90;;;;;;5033449;28;20485;-56
2021/12/16 05:34:15;;;;;;;16.40;15.80;;;19.40;99.90;;;;;;5033584;28;20540;-53
2021/12/16 05:36:42;;;;;;;15.97;15.37;;;19.40;99.90;;;;;;5052309;28;20471;-55
2021/12/16 05:39:12;;;;;;;15.13;14.57;;;19.40;99.90;;;;;;5053346;28;20593;-49
2021/12/16 05:41:39;;;;;;;15.63;15.03;;;19.40;99.90;;;;;;5053247;28;20447;-54
2021/12/16 05:44:06;;;;;;;15.80;15.17;;;19.50;99.90;;;;;;5053262;28;20451;-59
2021/12/16 05:46:33;;;;;;;15.40;14.80;;;19.50;99.80;;;;;;5052850;28;20448;-55
2021/12/16 05:49:02;;;;;;;15.63;14.93;;;19.50;99.70;;;;;;5077223;22;20492;-49
2021/12/16 05:51:32;;;;;;;15.30;14.70;;;19.50;99.90;;;;;;5052757;28;20436;-52
2021/12/16 05:54:01;;;;;;;14.60;14.10;;;19.40;99.90;;;;;;5053051;28;20793;-54
2021/12/16 05:56:30;;;;;;;15.30;14.70;;;19.80;99.90;;;;;;5052681;28;20456;-52
2021/12/16 05:58:57;;;;;;;15.20;14.70;;;20.20;98.80;;;;;;5052927;28;20832;-52
2021/12/16 06:01:29;;;;;;;15.87;15.27;;;20.50;97.60;;;;;;5052747;28;20455;-50
2021/12/16 06:03:56;;;;;;;16.17;15.57;;;20.60;96.70;;;;;;5052886;28;20929;-50
2021/12/16 06:06:23;;;;;;;16.30;15.57;;;20.70;95.90;;;;;;5052588;28;20448;-53
2021/12/16 06:08:51;;;;;;;15.90;15.40;;;20.70;95.30;;;;;;5052545;28;20475;-55
2021/12/16 06:11:22;;;;;;;16.13;15.53;;;20.80;94.80;;;;;;5052644;28;20444;-54
2021/12/16 06:14:08;;;;;;;16.70;16.00;;;20.90;94.30;;;;;;5052661;28;20432;-53
2021/12/16 06:27:51;;;;;;;16.97;16.27;;;20.90;92.80;;;;;;5045692;28;20471;-51
2021/12/16 06:30:22;;;;;;;15.80;15.30;;;21.00;92.50;;;;;;5052353;28;20523;-49
2021/12/16 06:32:49;;;;;;;16.53;15.90;;;20.90;92.30;;;;;;5051997;28;20480;-48
2021/12/16 06:35:17;;;;;;;16.80;16.17;;;21.00;92.10;;;;;;5051999;28;20452;-49
2021/12/16 06:37:45;;;;;;;15.97;15.40;;;20.90;92.10;;;;;;5051829;28;20456;-52
2021/12/16 06:40:12;;;;;;;16.93;16.33;;;21.00;92.40;;;;;;5052089;28;20443;-51
2021/12/16 06:42:41;;;;;;;17.33;16.60;;;20.90;91.90;;;;;;5051766;28;20515;-53
2021/12/16 06:45:13;;;;;;;16.03;15.43;;;20.90;91.90;;;;;;5051772;28;20448;-49
2021/12/16 06:47:46;;;;;;;17.03;16.43;;;20.90;91.80;;;;;;5051986;28;20466;-48
2021/12/16 06:50:24;;;;;;;16.63;16.03;;;20.90;91.70;;;;;;5051899;28;20472;-49
2021/12/16 06:52:54;;;;;;;16.50;15.90;;;20.90;91.70;;;;;;5051658;28;20537;-50
2021/12/16 06:55:27;;;;;;;16.50;15.90;;;20.90;91.60;;;;;;5051848;28;20476;-55
2021/12/16 06:57:56;;;;;;;16.20;15.60;;;20.90;92.00;;;;;;5051848;28;20500;-57
2021/12/16 07:00:32;;;;;;;16.50;15.90;;;20.80;91.60;;;;;;5051831;28;20456;-53
2021/12/16 07:03:02;;;;;;;17.00;16.30;;;20.80;91.60;;;;;;5047158;28;20451;-56
2021/12/16 07:05:32;;;;;;;16.63;16.03;;;20.80;91.70;;;;;;5039681;28;21043;-53
2021/12/16 07:08:00;;;;;;;16.27;15.47;;;20.70;92.00;;;;;;5039570;28;20479;-54
2021/12/16 07:10:29;;;;;;;14.20;13.70;;;20.60;92.70;;;;;;5039708;28;20483;-56
2021/12/16 07:12:58;;;;;;;15.77;15.17;;;20.50;93.30;;;;;;5038844;28;20523;-55
2021/12/16 07:15:27;;;;;;;16.43;15.73;;;20.30;94.20;;;;;;5039713;28;20812;-52
2021/12/16 07:17:56;;;;;;;14.70;14.10;;;20.30;94.90;;;;;;5039267;28;20468;-55
2021/12/16 07:20:28;;;;;;;13.67;13.17;;;20.30;95.40;;;;;;5039608;28;20444;-52
2021/12/16 07:22:55;;;;;;;14.53;13.93;;;20.20;95.80;;;;;;5039048;28;20529;-55
2021/12/16 07:25:22;;;;;;;13.00;12.60;;;20.20;96.40;;;;;;5039259;28;20448;-52
2021/12/16 07:27:49;;;;;;;13.27;12.87;;;20.10;96.80;;;;;;5039315;28;20919;-52
2021/12/16 07:30:17;;;;;;;13.80;13.30;;;20.10;97.10;;;;;;5039415;28;20456;-53
2021/12/16 07:32:44;;;;;;;15.20;14.60;;;20.10;97.60;;;;;;5039268;28;21009;-52
2021/12/16 07:35:15;;;;;;;13.73;13.23;;;20.10;97.80;;;;;;5039298;28;20462;-52
2021/12/16 07:37:44;;;;;;;12.20;11.70;;;20.10;98.10;;;;;;5038110;28;20844;-53
2021/12/16 07:40:13;;;;;;;13.10;12.70;;;20.10;97.70;;;;;;5039163;28;20416;-53
2021/12/16 07:42:47;;;;;;;13.00;12.60;;;20.20;97.60;;;;;;5039107;28;20933;-55
2021/12/16 07:45:17;;;;;;;14.97;14.43;;;20.10;98.00;;;;;;5039472;28;20451;-52
2021/12/16 07:47:44;;;;;;;12.90;12.50;;;20.10;97.90;;;;;;5039166;28;20452;-52
2021/12/16 07:50:13;;;;;;;13.30;12.80;;;20.10;98.00;;;;;;5038914;28;20456;-52
2021/12/16 07:52:41;;;;;;;14.00;13.50;;;20.00;98.30;;;;;;5039453;28;20484;-54
2021/12/16 07:55:11;;;;;;;13.70;13.30;;;20.00;98.40;;;;;;5039358;28;20538;-52
2021/12/16 07:57:38;;;;;;;14.43;13.93;;;20.00;98.70;;;;;;5039248;28;20448;-53
2021/12/16 08:00:12;;;;;;;14.60;14.10;;;20.00;98.70;;;;;;5039260;28;20460;-51
2021/12/16 08:02:39;;;;;;;13.60;13.20;;;20.10;98.80;;;;;;5038886;28;20459;-53
2021/12/16 08:05:07;;;;;;;14.77;14.27;;;20.00;98.70;;;;;;5039188;28;20837;-56
2021/12/16 08:07:34;;;;;;;14.67;14.17;;;20.10;98.40;;;;;;5039424;28;20452;-58
2021/12/16 08:10:01;;;;;;;15.40;14.90;;;20.10;98.10;;;;;;5039230;28;20475;-53
2021/12/16 08:12:30;;;;;;;14.67;14.17;;;20.10;98.20;;;;;;5038653;28;20480;-53
2021/12/16 08:14:57;;;;;;;12.90;12.47;;;20.10;98.60;;;;;;5039135;28;20459;-52
2021/12/16 08:17:24;;;;;;;14.03;13.53;;;20.10;98.90;;;;;;5039180;28;20904;-52
2021/12/16 08:19:50;;;;;;;13.87;13.37;;;20.10;98.90;;;;;;5039015;28;20468;-51
2021/12/16 08:22:17;;;;;;;14.83;14.00;;;20.20;98.30;;;;;;5039025;28;20892;-50
2021/12/16 08:24:44;;;;;;;16.13;15.00;;;20.10;98.90;;;;;;5041326;28;20804;-49
2021/12/16 08:27:12;;;;;;;16.37;15.10;;;20.20;99.90;;;;;;5042631;28;20475;-52
2021/12/16 08:29:40;;;;;;;15.53;14.10;;;20.10;99.90;;;;;;5042536;28;20476;-52
2021/12/16 08:32:07;;;;;;;20.17;14.97;;;20.10;99.90;;;;;;5042231;28;20452;-50
2021/12/16 08:34:37;;;;;;;15.37;14.07;;;20.20;99.90;;;;;;5042633;28;20451;-52
2021/12/16 08:37:06;;;;;;;18.63;13.50;;;20.20;99.90;;;;;;5042639;28;20456;-49
2021/12/16 08:39:32;;;;;;;15.97;11.13;;;20.20;99.90;;;;;;5042349;28;20549;-52
2021/12/16 08:41:59;;;;;;;21.40;13.60;;;20.30;99.90;;;;;;5042392;28;20448;-53
2021/12/16 08:44:28;;;;;;;21.30;12.50;;;20.30;99.90;;;;;;5042485;28;20455;-52
2021/12/16 08:46:59;;;;;;;13.13;11.80;;;20.40;99.90;;;;;;5041705;28;20487;-55
2021/12/16 08:49:26;;;;;;;15.80;14.10;;;20.50;99.90;;;;;;5042182;28;20901;-53
2021/12/16 08:51:57;;;;;;;15.90;13.50;;;20.40;99.90;;;;;;5041389;28;20444;-53
2021/12/16 08:54:24;;;;;;;14.13;12.80;;;20.40;99.90;;;;;;5041817;28;20573;-54
2021/12/16 08:56:52;;;;;;;15.27;13.80;;;20.40;99.90;;;;;;5041692;28;20445;-54
2021/12/16 08:59:19;;;;;;;15.57;14.00;;;20.40;99.90;;;;;;5042329;28;20479;-54
2021/12/16 09:01:48;;;;;;;18.30;14.43;;;20.40;99.90;;;;;;5044450;28;20452;-55
2021/12/16 09:04:19;;;;;;;17.13;14.70;;;20.40;99.90;;;;;;5053445;28;20459;-54
2021/12/16 09:06:47;;;;;;;16.07;14.67;;;20.40;99.90;;;;;;5053416;28;20539;-52
2021/12/16 09:09:14;;;;;;;18.20;14.70;;;20.30;99.90;;;;;;5053642;28;20465;-50
2021/12/16 09:11:55;;;;;;;15.60;13.93;;;20.30;99.90;;;;;;5053812;28;20452;-49
2021/12/16 09:14:22;;;;;;;15.40;13.93;;;20.30;99.90;;;;;;5053564;28;20535;-49
2021/12/16 09:16:49;;;;;;;13.90;12.73;;;20.20;99.90;;;;;;5053639;28;20842;-49
2021/12/16 09:19:18;;;;;;;14.60;13.47;;;20.20;99.90;;;;;;5053574;28;20468;-53
2021/12/16 09:21:44;;;;;;;13.27;12.27;;;20.10;99.90;;;;;;5053471;28;20447;-50
2021/12/16 09:24:14;;;;;;;15.93;14.53;;;20.00;99.90;;;;;;5053674;28;20448;-49
2021/12/16 09:26:41;;;;;;;17.90;16.10;;;20.00;99.90;;;;;;5053591;28;20484;-50
2021/12/16 09:29:08;;;;;;;16.53;15.17;;;19.90;99.90;;;;;;5053493;28;20460;-53
2021/12/16 09:31:35;;;;;;;15.73;14.07;;;19.80;99.90;;;;;;5053376;28;20452;-49
2021/12/16 09:34:06;;;;;;;16.20;14.87;;;19.80;99.90;;;;;;5052950;28;20479;-51
2021/12/16 09:36:37;;;;;;;16.23;14.60;;;19.80;99.90;;;;;;5053619;28;20535;-49
2021/12/16 09:39:06;;;;;;;15.53;14.50;;;19.80;99.90;;;;;;5053428;28;20483;-53
2021/12/16 09:41:33;;;;;;;14.33;13.43;;;19.70;99.90;;;;;;5053165;28;20953;-49
2021/12/16 09:44:01;;;;;;;15.00;13.70;;;19.70;99.90;;;;;;5053331;28;20451;-48
2021/12/16 09:46:29;;;;;;;14.77;13.73;;;19.60;99.90;;;;;;5053330;28;20801;-49
2021/12/16 09:48:57;;;;;;;16.30;14.77;;;19.60;99.90;;;;;;5052987;28;20475;-49
2021/12/16 09:51:27;;;;;;;14.33;13.47;;;19.60;99.90;;;;;;5053247;28;20449;-48
2021/12/16 09:53:59;;;;;;;15.03;13.93;;;19.60;99.90;;;;;;5053081;28;20482;-48
2021/12/16 09:56:28;;;;;;;17.00;15.60;;;19.60;99.90;;;;;;5053184;28;20459;-48
2021/12/16 09:58:56;;;;;;;15.50;14.60;;;19.60;99.90;;;;;;5052919;28;20472;-53
2021/12/16 10:01:24;;;;;;;15.50;14.23;;;19.60;99.90;;;;;;5052879;28;20505;-51
2021/12/16 10:03:56;;;;;;;15.57;14.50;;;19.60;99.90;;;;;;5052617;28;20448;-48
2021/12/16 10:06:23;;;;;;;13.57;12.57;;;19.50;99.90;;;;;;5052978;28;20480;-51
2021/12/16 10:08:49;;;;;;;15.20;13.80;;;19.50;99.90;;;;;;5052603;28;20464;-49
2021/12/16 10:11:18;;;;;;;16.17;14.97;;;19.50;99.90;;;;;;5052885;28;20498;-49
2021/12/16 10:13:58;;;;;;;14.53;13.63;;;19.50;99.90;;;;;;5052473;28;20487;-48
2021/12/16 10:19:06;;;;;;;15.10;13.70;;;19.50;99.90;;;;;;5051715;28;20448;-53
2021/12/16 10:21:32;;;;;;;16.20;15.07;;;19.50;99.90;;;;;;5052657;28;20440;-53
2021/12/16 10:23:59;;;;;;;16.30;15.10;;;19.50;99.90;;;;;;5052588;28;20916;-57
2021/12/16 10:26:28;;;;;;;15.30;14.40;;;19.50;99.90;;;;;;5052457;28;20460;-55
2021/12/16 10:28:57;;;;;;;14.63;13.73;;;19.50;99.90;;;;;;5052266;28;20495;-50
2021/12/16 10:31:28;;;;;;;15.90;14.60;;;19.50;99.90;;;;;;5052341;28;20456;-51
2021/12/16 10:33:58;;;;;;;15.30;14.33;;;19.50;99.90;;;;;;5052180;28;20818;-56
2021/12/16 10:36:27;;;;;;;15.40;14.30;;;19.70;99.90;;;;;;5052341;28;20490;-57
2021/12/16 10:38:56;;;;;;;15.40;14.30;;;19.80;99.90;;;;;;5052163;28;20472;-61
2021/12/16 10:41:26;;;;;;;15.90;14.70;;;19.90;99.90;;;;;;5051236;28;20444;-54
2021/12/16 10:43:57;;;;;;;15.60;14.63;;;19.80;99.90;;;;;;5051236;28;20467;-49
2021/12/16 10:46:26;;;;;;;15.90;15.03;;;19.80;99.90;;;;;;5051386;28;20452;-49
2021/12/16 10:48:55;;;;;;;16.33;15.13;;;19.60;99.90;;;;;;5051773;28;20483;-50
2021/12/16 10:51:26;;;;;;;16.87;15.73;;;19.60;99.90;;;;;;5051894;28;20863;-51
2021/12/16 10:54:06;;;;;;;15.43;14.40;;;19.50;99.90;;;;;;5051797;28;21053;-51
2021/12/16 10:56:37;;;;;;;16.90;15.40;;;19.50;99.90;;;;;;5051818;28;20455;-48
2021/12/16 10:59:09;;;;;;;16.13;14.83;;;19.50;99.90;;;;;;5051824;28;20468;-52
2021/12/16 11:01:44;;;;;;;17.00;15.70;;;19.50;99.90;;;;;;5051567;28;20830;-53
2021/12/16 11:04:14;;;;;;;16.80;15.67;;;19.50;99.90;;;;;;5051700;28;20440;-49
2021/12/16 11:06:44;;;;;;;15.73;15.03;;;19.50;99.90;;;;;;5051830;28;20532;-49
2021/12/16 11:09:46;;;;;;;16.37;15.40;;;19.50;99.90;;;;;;5051551;28;20977;-49
2021/12/16 11:12:23;;;;;;;16.00;14.87;;;19.40;99.90;;;;;;5009355;28;20463;-52
2021/12/16 11:14:54;;;;;;;15.80;15.00;;;19.40;99.90;;;;;;5051418;28;20479;-52
2021/12/16 11:17:23;;;;;;;15.40;14.60;;;19.40;99.90;;;;;;5051601;28;20833;-54
2021/12/16 11:19:55;;;;;;;14.60;13.80;;;19.40;99.90;;;;;;5051537;28;20475;-53
2021/12/16 11:22:25;;;;;;;14.30;13.40;;;19.40;99.90;;;;;;5051592;28;20942;-51
2021/12/16 11:24:53;;;;;;;14.83;14.03;;;19.30;99.90;;;;;;5051528;28;20445;-49
2021/12/16 11:27:36;;;;;;;15.40;14.43;;;19.30;99.90;;;;;;5051489;28;20879;-53
2021/12/16 11:30:20;;;;;;;15.33;14.30;;;19.40;99.90;;;;;;5051508;28;20697;-51
2021/12/16 11:32:50;;;;;;;16.57;15.53;;;19.30;99.90;;;;;;5051384;28;20440;-54
2021/12/16 11:35:30;;;;;;;14.77;14.07;;;19.30;99.90;;;;;;5051365;28;20500;-52
2021/12/16 11:38:02;;;;;;;15.60;14.80;;;19.30;99.90;;;;;;5051093;28;20976;-51
2021/12/16 11:40:30;;;;;;;16.90;15.70;;;19.20;99.90;;;;;;5051365;28;20854;-49
2021/12/16 11:43:03;;;;;;;15.50;14.30;;;19.20;99.90;;;;;;5051057;28;20816;-49
2021/12/16 11:45:37;;;;;;;16.17;15.10;;;19.20;99.90;;;;;;5051320;28;20823;-50
2021/12/16 11:48:06;;;;;;;16.10;15.13;;;19.20;99.90;;;;;;5051698;28;20486;-48
2021/12/16 11:50:40;;;;;;;16.30;15.20;;;19.20;99.90;;;;;;5051300;28;20953;-50
2021/12/16 11:53:07;;;;;;;15.23;14.43;;;19.10;99.90;;;;;;5051111;28;20491;-50
2021/12/16 11:55:36;;;;;;;16.63;15.43;;;19.20;99.90;;;;;;5051281;28;20952;-49
2021/12/16 11:58:04;;;;;;;14.40;13.77;;;19.20;99.90;;;;;;5052708;28;20864;-50
2021/12/16 12:00:34;;;;;;;14.43;13.73;;;19.20;99.90;;;;;;5055155;28;20809;-49
2021/12/16 12:03:07;;;;;;;14.67;13.87;;;19.20;99.90;;;;;;5054963;28;20820;-49
2021/12/16 12:05:37;;;;;;;15.17;14.27;;;19.20;99.90;;;;;;5055115;28;20502;-52
2021/12/16 12:08:06;;;;;;;15.00;14.30;;;19.20;99.90;;;;;;5054969;28;21008;-49
2021/12/16 12:10:39;;;;;;;15.63;14.83;;;19.20;99.90;;;;;;5054939;28;20448;-49
2021/12/16 12:13:11;;;;;;;16.30;15.30;;;19.20;99.90;;;;;;5054856;28;20897;-49
2021/12/16 12:15:56;;;;;;;17.63;16.63;;;19.20;99.90;;;;;;5054917;28;20491;-50
2021/12/16 12:18:42;;;;;;;14.87;14.07;;;19.20;99.90;;;;;;5054860;28;20455;-49
2021/12/16 12:21:21;;;;;;;15.93;15.00;;;19.20;99.90;;;;;;5055054;28;20452;-51
2021/12/16 12:23:49;;;;;;;15.17;14.27;;;19.20;99.90;;;;;;5054593;28;20949;-53
2021/12/16 12:26:17;;;;;;;15.97;15.17;;;19.20;99.90;;;;;;5054734;28;20922;-55
2021/12/16 12:28:44;;;;;;;15.23;14.37;;;19.40;99.90;;;;;;5054609;28;20559;-57
2021/12/16 12:31:11;;;;;;;16.93;15.90;;;19.50;99.90;;;;;;5054524;28;20448;-56
2021/12/16 12:33:40;;;;;;;16.30;15.40;;;19.60;99.90;;;;;;5054434;28;20448;-51
2021/12/16 12:36:08;;;;;;;14.23;13.53;;;19.70;99.90;;;;;;5054571;28;20448;-50
2021/12/16 12:38:36;;;;;;;17.00;15.90;;;19.70;99.90;;;;;;5054308;28;20495;-55
2021/12/16 12:41:04;;;;;;;16.07;14.97;;;19.80;99.90;;;;;;5054438;28;20444;-53
2021/12/16 12:43:33;;;;;;;15.43;14.73;;;19.80;99.90;;;;;;5054181;28;20448;-52
2021/12/16 12:46:00;;;;;;;15.80;15.00;;;19.80;99.90;;;;;;5054394;28;20541;-54
2021/12/16 12:48:27;;;;;;;16.40;15.50;;;19.80;99.90;;;;;;5054182;28;20483;-56
2021/12/16 12:50:58;;;;;;;20.13;14.90;;;19.80;99.90;;;;;;5054175;28;20451;-50
2021/12/16 12:53:27;;;;;;;14.85;14.05;;;19.90;99.90;;;;;;5053205;28;20539;-51
2021/12/16 12:55:57;;;;;;;15.83;15.07;;;19.90;99.90;;;;;;5054297;28;20228;-53
2021/12/16 12:58:27;;;;;;;15.20;14.50;;;19.90;99.90;;;;;;5054149;28;20459;-51
2021/12/16 13:00:57;;;;;;;16.50;15.60;;;20.00;99.90;;;;;;5054119;28;20440;-47
2021/12/16 13:03:28;;;;;;;15.87;14.90;;;20.00;99.90;;;;;;5053810;28;20939;-55
2021/12/16 13:06:00;;;;;;;15.17;14.40;;;20.00;99.90;;;;;;5053825;28;20941;-52
2021/12/16 13:08:29;;;;;;;16.03;15.30;;;20.00;99.90;;;;;;5054022;28;20460;-47
2021/12/16 13:11:00;;;;;;;16.23;15.33;;;19.90;99.90;;;;;;5053066;28;20436;-50
2021/12/16 13:13:32;;;;;;;16.20;15.40;;;19.80;99.90;;;;;;5053650;28;20468;-49
2021/12/16 13:16:21;;;;;;;16.10;15.10;;;19.90;99.90;;;;;;5053839;28;20432;-55
2021/12/16 13:24:48;;;;;;;16.90;15.60;;;20.00;99.90;;;;;;5053622;28;20916;-53
2021/12/16 13:27:25;;;;;;;15.57;14.70;;;20.00;99.90;;;;;;5053727;28;20933;-49
2021/12/16 13:30:07;;;;;;;17.10;16.20;;;19.90;99.90;;;;;;5053613;28;20866;-52
2021/12/16 13:32:42;;;;;;;15.97;14.90;;;20.00;99.90;;;;;;5053222;28;20444;-49
2021/12/16 13:35:23;;;;;;;14.90;14.20;;;20.00;99.90;;;;;;5053479;28;20483;-50
2021/12/16 13:37:54;;;;;;;15.63;14.77;;;20.00;99.90;;;;;;5053425;28;21006;-51
2021/12/16 13:40:25;;;;;;;17.43;16.33;;;19.90;99.90;;;;;;5053691;28;20840;-49
2021/12/16 13:42:57;;;;;;;15.80;15.00;;;19.90;99.90;;;;;;5053195;28;20444;-47
2021/12/16 13:45:31;;;;;;;16.33;15.37;;;20.00;99.90;;;;;;5053724;28;20527;-51
2021/12/16 14:02:59;;;;;;;15.90;14.97;;;19.80;99.90;;;;;;5052644;28;20869;-58
2021/12/16 14:05:50;;;;;;;15.50;14.50;;;19.80;99.90;;;;;;5053212;28;20444;-53
2021/12/16 14:08:36;;;;;;;15.60;14.70;;;19.90;99.90;;;;;;5052947;28;20471;-50
2021/12/16 14:11:35;;;;;;;17.63;16.43;;;19.80;99.90;;;;;;5052950;28;20546;-53
2021/12/16 14:14:22;;;;;;;15.70;14.80;;;19.60;99.90;;;;;;5052554;28;20444;-53
2021/12/16 14:17:12;;;;;;;16.10;15.07;;;19.60;99.90;;;;;;5052917;28;20459;-53
2021/12/16 14:25:22;;;;;;;15.67;14.87;;;19.40;99.90;;;;;;5052718;28;20416;-53
2021/12/16 14:37:10;;;;;;;17.20;16.10;;;19.30;99.90;;;;;;5089253;28;20513;-51
2021/12/16 14:39:59;;;;;;;16.30;15.30;;;19.30;99.90;;;;;;5068746;28;20563;-51
2021/12/16 14:42:42;;;;;;;16.87;15.67;;;19.30;99.90;;;;;;5068635;28;20447;-53
2021/12/16 14:48:09;;;;;;;15.40;14.53;;;19.30;99.90;;;;;;5069040;28;20522;-51
2021/12/16 14:50:38;;;;;;;14.63;13.80;;;19.20;99.90;;;;;;5068739;28;20486;-55
2021/12/16 14:53:19;;;;;;;15.97;15.03;;;19.20;99.90;;;;;;5068577;28;20471;-53
2021/12/16 14:55:48;;;;;;;15.73;14.87;;;19.20;99.90;;;;;;5068508;28;20479;-53
2021/12/16 14:58:18;;;;;;;15.07;14.27;;;19.20;99.90;;;;;;5068545;28;20474;-54
2021/12/16 15:00:49;;;;;;;18.37;17.00;;;19.20;99.90;;;;;;5068558;28;20443;-51
2021/12/16 15:03:18;;;;;;;16.00;15.10;;;19.10;99.90;;;;;;5068259;28;20447;-54
2021/12/16 15:05:48;;;;;;;16.27;15.17;;;19.10;99.90;;;;;;5068416;28;20443;-53
2021/12/16 15:08:25;;;;;;;16.47;15.43;;;19.10;99.90;;;;;;5068318;28;20478;-50
2021/12/16 15:10:54;;;;;;;16.03;14.93;;;19.10;99.90;;;;;;5068387;28;20447;-51
2021/12/16 15:13:26;;;;;;;15.33;14.60;;;19.10;99.90;;;;;;5068095;28;20462;-52